Time;durP1;ratioP1;P1;durP2;ratioP2;P2;SDS_P1;SDS_P2;PMS_P1;PMS_P2;Temp;Humidity;BMP_temperature;BMP_pressure;BME280_temperature;BME280_humidity;BME280_pressure;Samples;Min_cycle;Max_cycle;Signal;HPM_P1;HPM_P2
2023/01/10 00:00:08;;;;;;;;;0.75;0.75;;;;;6.08;80.35;99680.59;4995125;28;45421;-78
2023/01/10 00:02:34;;;;;;;;;0.25;0.00;;;;;6.07;80.19;99684.09;4995915;28;45420;-79
2023/01/10 00:04:59;;;;;;;;;1.00;1.00;;;;;6.10;79.50;99702.38;4995457;28;45535;-78
2023/01/10 00:07:24;;;;;;;;;0.00;0.00;;;;;6.11;79.47;99704.09;4995922;28;45467;-78
2023/01/10 00:09:50;;;;;;;;;0.50;0.00;;;;;6.06;79.63;99705.91;4995775;28;45417;-79
2023/01/10 00:14:59;;;;;;;;;0.50;0.00;;;;;6.19;78.90;99739.78;4996465;28;45472;-79
2023/01/10 00:17:26;;;;;;;;;2.25;1.00;;;;;6.23;78.19;99745.81;4995516;28;46035;-78
2023/01/10 00:19:51;;;;;;;;;2.00;1.00;;;;;6.28;78.21;99723.06;4995789;28;45503;-78
2023/01/10 00:22:19;;;;;;;;;0.00;0.00;;;;;6.32;77.87;99734.38;4996440;28;45441;-78
2023/01/10 00:24:44;;;;;;;;;0.00;0.00;;;;;6.38;79.00;99742.13;4995844;28;45534;-79
2023/01/10 00:27:11;;;;;;;;;0.00;0.00;;;;;6.42;78.68;99738.59;4995796;28;45514;-78
2023/01/10 00:29:38;;;;;;;;;0.00;0.00;;;;;6.44;78.63;99755.16;4994710;28;45433;-79
2023/01/10 00:32:03;;;;;;;;;0.00;0.00;;;;;6.43;79.11;99741.19;4995016;28;45509;-78
2023/01/10 00:34:31;;;;;;;;;1.00;0.25;;;;;6.45;77.99;99736.81;4995152;28;45544;-79
2023/01/10 00:36:56;;;;;;;;;1.00;0.00;;;;;6.48;75.96;99765.59;4995378;28;45581;-78
2023/01/10 00:39:25;;;;;;;;;0.50;0.50;;;;;6.53;76.84;99752.44;4995499;28;45414;-78
2023/01/10 00:44:35;;;;;;;;;0.75;0.75;;;;;6.55;76.71;99756.75;4995069;28;45467;-77
2023/01/10 00:47:00;;;;;;;;;1.00;1.00;;;;;6.53;76.37;99774.25;4995105;28;46173;-78
2023/01/10 00:49:26;;;;;;;;;1.00;1.00;;;;;6.51;77.03;99773.41;4997386;28;45604;-78
2023/01/10 00:51:51;;;;;;;;;0.00;0.00;;;;;6.46;77.85;99767.34;4995785;28;45400;-78
2023/01/10 00:54:17;;;;;;;;;1.50;0.00;;;;;6.42;78.86;99773.50;4994782;28;45338;-78
2023/01/10 00:56:42;;;;;;;;;0.00;0.00;;;;;6.37;78.61;99779.72;4994973;28;46124;-78
2023/01/10 00:59:08;;;;;;;;;1.00;1.00;;;;;6.29;78.69;99795.50;4994749;28;45381;-78
2023/01/10 01:01:33;;;;;;;;;1.00;1.00;;;;;6.27;78.52;99797.28;4993839;28;45556;-77
2023/01/10 01:03:59;;;;;;;;;3.50;1.00;;;;;6.21;79.97;99786.88;4994803;28;45465;-77
2023/01/10 01:06:25;;;;;;;;;0.00;0.00;;;;;6.19;78.87;99792.16;5007804;28;46358;-76
2023/01/10 01:08:50;;;;;;;;;1.00;1.00;;;;;6.17;79.08;99786.06;4994523;28;45418;-77
2023/01/10 01:11:16;;;;;;;;;2.00;1.25;;;;;6.16;80.74;99813.13;4995087;28;45436;-76
2023/01/10 01:13:41;;;;;;;;;2.00;1.00;;;;;6.15;80.08;99813.13;4994562;28;45547;-77
2023/01/10 01:16:07;;;;;;;;;2.00;1.00;;;;;6.13;80.97;99833.22;4994588;28;45466;-78
2023/01/10 01:18:33;;;;;;;;;1.00;1.00;;;;;6.13;80.34;99841.94;4994563;28;45453;-78
2023/01/10 01:21:02;;;;;;;;;1.25;1.00;;;;;6.11;80.56;99827.13;4994612;28;45469;-79
2023/01/10 01:23:29;;;;;;;;;1.00;1.00;;;;;6.06;80.48;99840.25;4994185;28;45509;-78
2023/01/10 01:25:55;;;;;;;;;2.00;0.75;;;;;6.04;80.00;99849.00;4994041;28;46678;-77
2023/01/10 01:28:21;;;;;;;;;1.00;0.00;;;;;6.01;80.67;99844.69;4992719;28;45440;-77
2023/01/10 01:30:47;;;;;;;;;0.00;0.00;;;;;5.94;81.07;99851.72;4994725;28;45472;-78
2023/01/10 01:33:13;;;;;;;;;0.00;0.00;;;;;5.88;78.86;99835.16;4993925;28;45635;-77
2023/01/10 01:35:46;;;;;;;;;1.00;1.00;;;;;5.86;81.23;99834.34;4994189;28;46152;-76
2023/01/10 01:38:13;;;;;;;;;0.75;0.75;;;;;5.83;81.57;99830.00;4994222;28;45441;-77
2023/01/10 01:40:40;;;;;;;;;0.25;0.25;;;;;5.82;81.17;99854.44;4994514;28;45421;-76
2023/01/10 01:43:22;;;;;;;;;1.00;1.00;;;;;5.82;82.01;99843.97;4991612;28;45992;-77
2023/01/10 01:45:48;;;;;;;;;2.00;0.50;;;;;5.81;82.21;99849.22;4994082;28;46517;-77
2023/01/10 01:48:22;;;;;;;;;1.00;1.00;;;;;5.80;82.60;99863.19;4993888;28;45437;-78
2023/01/10 01:51:04;;;;;;;;;1.00;1.00;;;;;5.79;82.74;99872.78;4994245;28;45450;-78
2023/01/10 01:53:46;;;;;;;;;1.00;1.00;;;;;5.78;83.37;99886.72;5012960;28;45429;-78
2023/01/10 01:56:20;;;;;;;;;0.00;0.00;;;;;5.81;82.59;99878.88;4994148;28;45750;-78
2023/01/10 01:59:22;;;;;;;;;1.00;1.00;;;;;5.84;82.88;99875.34;4993831;28;45395;-78
2023/01/10 02:01:51;;;;;;;;;0.25;0.25;;;;;5.88;82.52;99885.78;4982919;28;45573;-78
2023/01/10 02:04:25;;;;;;;;;0.50;0.50;;;;;5.91;83.39;99887.53;4977662;28;45389;-78
2023/01/10 02:06:53;;;;;;;;;1.75;1.00;;;;;5.92;83.37;99887.50;4987712;28;46559;-78
2023/01/10 02:09:39;;;;;;;;;4.75;1.00;;;;;5.91;82.78;99875.31;4997376;28;45559;-78
2023/01/10 02:12:06;;;;;;;;;1.00;0.75;;;;;5.92;82.58;99876.16;4997422;28;45605;-78
2023/01/10 02:14:33;;;;;;;;;1.00;1.00;;;;;5.89;83.44;99869.22;4989911;28;45426;-78
2023/01/10 02:16:58;;;;;;;;;2.00;1.25;;;;;5.89;82.89;99878.81;4991382;28;45462;-77
2023/01/10 02:19:53;;;;;;;;;0.00;0.00;;;;;5.96;79.37;99885.75;4997281;28;45389;-78
2023/01/10 02:22:41;;;;;;;;;2.50;1.00;;;;;6.03;77.36;99878.72;4996568;28;45448;-78
2023/01/10 02:25:31;;;;;;;;;0.25;0.00;;;;;6.10;78.71;99890.84;4996058;28;45584;-78
2023/01/10 02:28:14;;;;;;;;;0.75;0.75;;;;;6.12;79.31;99876.84;4996839;28;45680;-78
2023/01/10 02:30:58;;;;;;;;;0.00;0.00;;;;;6.12;79.07;99884.72;4996103;28;45445;-77
2023/01/10 02:34:01;;;;;;;;;0.00;0.00;;;;;6.14;78.92;99884.69;4995625;28;45516;-77
2023/01/10 02:36:36;;;;;;;;;1.25;0.00;;;;;6.13;77.67;99881.22;4997043;28;45338;-77
2023/01/10 02:39:23;;;;;;;;;1.00;1.00;;;;;6.14;78.14;99882.94;4996636;28;45385;-79
2023/01/10 02:41:57;;;;;;;;;1.75;0.00;;;;;6.16;79.04;99877.69;4996845;28;45429;-79
2023/01/10 02:44:53;;;;;;;;;0.00;0.00;;;;;6.14;79.58;99903.03;4995522;28;45386;-79
2023/01/10 02:47:18;;;;;;;;;1.00;1.00;;;;;6.15;80.49;99894.28;4995460;28;46142;-78
2023/01/10 02:49:46;;;;;;;;;2.75;0.00;;;;;6.13;80.73;99901.28;4996788;28;46573;-79
2023/01/10 02:52:30;;;;;;;;;0.00;0.00;;;;;6.11;79.79;99905.66;4995427;28;45478;-78
2023/01/10 02:55:02;;;;;;;;;0.00;0.00;;;;;6.07;79.95;99909.19;4996576;28;45491;-78
2023/01/10 02:57:34;;;;;;;;;0.00;0.00;;;;;6.07;80.10;99910.06;4996517;28;45458;-78
2023/01/10 03:00:07;;;;;;;;;0.00;0.00;;;;;6.05;80.15;99926.66;4996719;28;45438;-79
2023/01/10 03:02:57;;;;;;;;;2.00;0.00;;;;;6.05;80.36;99929.25;4996284;28;45717;-79
2023/01/10 03:06:01;;;;;;;;;1.75;0.00;;;;;6.02;80.52;99939.78;5008000;28;45567;-79
2023/01/10 03:08:38;;;;;;;;;1.00;0.00;;;;;6.01;80.77;99940.66;4984553;28;45956;-78
2023/01/10 03:11:06;;;;;;;;;1.50;0.50;;;;;6.00;81.32;99936.31;4994628;28;45351;-78
2023/01/10 03:13:41;;;;;;;;;0.00;0.00;;;;;6.03;81.02;99949.38;4995765;28;45374;-78
2023/01/10 03:16:11;;;;;;;;;1.00;0.00;;;;;6.01;80.93;99949.38;4983797;28;45492;-78
2023/01/10 03:18:44;;;;;;;;;0.00;0.00;;;;;6.01;81.19;99954.63;4996583;28;45460;-77
2023/01/10 03:21:11;;;;;;;;;0.00;0.00;;;;;5.99;80.95;99955.50;4996274;28;45735;-79
2023/01/10 03:23:39;;;;;;;;;0.00;0.00;;;;;5.97;81.01;99954.66;4996384;28;45453;-78
2023/01/10 03:26:07;;;;;;;;;0.75;0.00;;;;;5.99;81.26;99977.31;4996056;28;45484;-76
2023/01/10 03:28:51;;;;;;;;;0.00;0.00;;;;;5.96;81.10;99972.09;4995500;28;45476;-78
2023/01/10 03:31:34;;;;;;;;;0.00;0.00;;;;;5.95;81.50;99980.81;4995847;28;45558;-76
2023/01/10 03:34:00;;;;;;;;;1.00;1.00;;;;;5.94;81.35;99986.94;4995685;28;45509;-76
2023/01/10 03:36:36;;;;;;;;;0.00;0.00;;;;;5.92;80.97;99991.31;4996576;28;45451;-76
2023/01/10 03:39:23;;;;;;;;;0.50;0.50;;;;;5.96;81.80;100003.50;4996146;28;45513;-76
2023/01/10 03:42:09;;;;;;;;;2.00;1.00;;;;;5.94;81.48;99997.41;4995668;28;45896;-77
2023/01/10 03:44:48;;;;;;;;;3.00;1.00;;;;;6.00;82.10;100006.97;4995644;28;45330;-78
2023/01/10 03:47:38;;;;;;;;;4.00;2.67;;;;;6.02;82.40;100015.69;4996051;28;45490;-78
2023/01/10 03:50:15;;;;;;;;;4.00;2.00;;;;;6.03;82.61;100022.66;4995716;28;45473;-77
2023/01/10 03:52:41;;;;;;;;;1.33;1.33;;;;;6.01;82.76;100025.28;4994629;28;47586;-78
2023/01/10 03:55:10;;;;;;;;;3.33;2.00;;;;;5.98;83.08;100014.84;4995625;28;45452;-78
2023/01/10 03:57:36;;;;;;;;;1.00;0.25;;;;;5.97;82.99;100014.84;4995721;28;45367;-77
2023/01/10 04:00:02;;;;;;;;;2.00;2.00;;;;;5.94;83.28;100015.72;4996009;28;45471;-77
2023/01/10 04:02:30;;;;;;;;;2.67;2.67;;;;;5.93;83.35;100020.09;4994617;28;48231;-78
2023/01/10 04:04:56;;;;;;;;;1.50;1.50;;;;;5.94;83.19;100031.44;5003483;28;45314;-77
2023/01/10 04:07:22;;;;;;;;;3.00;1.00;;;;;5.94;83.50;100031.44;5000521;28;45389;-78
2023/01/10 04:09:48;;;;;;;;;2.00;2.00;;;;;5.93;83.84;100043.66;4995838;28;45519;-77
2023/01/10 04:12:14;;;;;;;;;0.00;0.00;;;;;5.94;83.55;100044.50;4995490;28;45374;-78
2023/01/10 04:14:40;;;;;;;;;2.00;1.00;;;;;5.93;83.36;100040.16;4995294;28;45453;-77
2023/01/10 04:17:05;;;;;;;;;1.00;1.00;;;;;5.92;83.61;100034.06;4994368;28;45492;-78
2023/01/10 04:19:31;;;;;;;;;4.00;2.00;;;;;5.95;83.63;100038.41;4995645;28;45521;-78
2023/01/10 04:21:56;;;;;;;;;2.33;1.67;;;;;5.96;83.73;100040.16;5010888;28;46552;-77
2023/01/10 04:24:22;;;;;;;;;2.67;1.00;;;;;5.95;82.92;100046.25;4995660;28;45418;-78
2023/01/10 04:26:47;;;;;;;;;1.25;1.25;;;;;5.94;83.23;100052.38;4995569;28;45549;-77
2023/01/10 04:29:13;;;;;;;;;1.00;1.00;;;;;5.93;83.74;100048.88;4994525;28;45361;-78
2023/01/10 04:31:38;;;;;;;;;1.00;1.00;;;;;5.90;83.69;100045.41;4995064;28;45933;-75
2023/01/10 04:34:07;;;;;;;;;2.00;2.00;;;;;5.90;83.74;100048.91;4995474;28;45342;-78
2023/01/10 04:36:33;;;;;;;;;3.00;1.00;;;;;5.89;84.10;100056.75;4995377;28;45406;-79
2023/01/10 04:38:59;;;;;;;;;2.00;2.00;;;;;5.83;83.62;100064.63;4995318;28;45492;-78
2023/01/10 04:41:24;;;;;;;;;2.00;1.00;;;;;5.83;83.92;100070.72;4994692;28;45547;-78
2023/01/10 04:43:50;;;;;;;;;2.00;2.00;;;;;5.82;84.22;100076.84;4993362;28;45583;-78
2023/01/10 04:46:16;;;;;;;;;3.00;2.00;;;;;5.79;84.76;100069.00;4995514;28;45535;-78
2023/01/10 04:48:41;;;;;;;;;5.00;2.00;;;;;5.76;84.85;100071.63;4995044;28;45431;-77
2023/01/10 04:51:06;;;;;;;;;1.75;1.75;;;;;5.70;84.91;100076.88;4994418;28;46514;-78
2023/01/10 04:53:32;;;;;;;;;1.00;1.00;;;;;5.71;84.64;100082.97;4993141;28;45486;-77
2023/01/10 04:56:06;;;;;;;;;2.25;2.00;;;;;5.68;84.68;100089.13;4994467;28;45644;-78
2023/01/10 04:58:34;;;;;;;;;2.67;2.67;;;;;5.68;85.20;100096.97;4994607;28;45580;-78
2023/01/10 05:01:06;;;;;;;;;5.33;2.00;;;;;5.69;85.32;100098.72;4993305;28;47227;-78
2023/01/10 05:03:31;;;;;;;;;3.00;2.00;;;;;5.69;85.23;100103.94;4995181;28;45540;-78
2023/01/10 05:05:57;;;;;;;;;3.33;2.33;;;;;5.69;85.55;100109.19;5008379;28;45741;-78
2023/01/10 05:08:23;;;;;;;;;1.33;0.33;;;;;5.72;85.50;100114.38;5009737;28;45569;-78
2023/01/10 05:10:48;;;;;;;;;3.00;2.00;;;;;5.68;85.25;100115.28;4993906;28;46372;-78
2023/01/10 05:13:13;;;;;;;;;1.00;1.00;;;;;5.69;85.44;100105.69;4993963;28;45538;-77
2023/01/10 05:15:39;;;;;;;;;1.00;1.00;;;;;5.69;85.51;100106.56;4994929;28;45316;-78
2023/01/10 05:18:04;;;;;;;;;1.00;1.00;;;;;5.68;85.42;100104.81;4995054;28;45575;-77
2023/01/10 05:20:30;;;;;;;;;0.75;0.00;;;;;5.74;85.20;100115.25;4994505;28;45462;-78
2023/01/10 05:22:55;;;;;;;;;0.00;0.00;;;;;5.77;85.50;100111.75;4994629;28;45337;-77
2023/01/10 05:25:21;;;;;;;;;1.00;1.00;;;;;5.82;85.37;100112.59;4994463;28;45293;-77
2023/01/10 05:27:46;;;;;;;;;0.00;0.00;;;;;5.85;85.59;100116.06;4994079;28;45628;-77
2023/01/10 05:30:12;;;;;;;;;0.75;0.75;;;;;5.89;84.70;100116.94;4994092;28;46581;-78
2023/01/10 05:32:38;;;;;;;;;0.00;0.00;;;;;5.92;84.38;100112.56;4994575;28;45559;-77
2023/01/10 05:35:04;;;;;;;;;2.50;1.00;;;;;5.92;83.65;100114.31;4994939;28;45440;-77
2023/01/10 05:37:30;;;;;;;;;0.25;0.25;;;;;5.94;83.83;100121.28;4994167;28;45609;-77
2023/01/10 05:39:55;;;;;;;;;0.00;0.00;;;;;5.95;83.20;100132.63;4991853;28;46552;-78
2023/01/10 05:42:20;;;;;;;;;1.50;0.00;;;;;5.96;82.75;100134.38;4993786;28;45445;-77
2023/01/10 05:44:46;;;;;;;;;0.00;0.00;;;;;5.94;82.59;100125.66;4994624;28;45939;-77
2023/01/10 05:47:11;;;;;;;;;0.00;0.00;;;;;5.94;82.29;100125.66;4994599;28;45512;-77
2023/01/10 05:49:37;;;;;;;;;1.00;0.00;;;;;5.94;82.25;100130.88;4992717;28;47194;-77
2023/01/10 05:52:02;;;;;;;;;0.00;0.00;;;;;5.98;82.63;100132.59;4994402;28;45485;-77
2023/01/10 05:54:28;;;;;;;;;0.00;0.00;;;;;6.00;82.10;100123.00;4994090;28;45633;-77
2023/01/10 05:56:54;;;;;;;;;0.00;0.00;;;;;6.02;81.55;100123.00;4992376;28;45429;-77
2023/01/10 05:59:19;;;;;;;;;0.00;0.00;;;;;6.08;81.64;100133.41;4993507;28;46308;-77
2023/01/10 06:01:45;;;;;;;;;0.00;0.00;;;;;6.07;80.92;100129.06;4992106;28;45347;-78
2023/01/10 06:04:10;;;;;;;;;0.00;0.00;;;;;6.10;81.10;100134.28;5010323;28;45457;-77
2023/01/10 06:06:36;;;;;;;;;1.00;0.00;;;;;6.14;81.25;100141.25;5005061;28;45461;-77
2023/01/10 06:09:01;;;;;;;;;0.00;0.00;;;;;6.14;81.35;100144.72;4991971;28;46735;-77
2023/01/10 06:11:28;;;;;;;;;1.00;1.00;;;;;6.16;81.01;100144.72;4994254;28;45326;-77
2023/01/10 06:13:57;;;;;;;;;1.25;1.00;;;;;6.17;81.52;100155.19;4993181;28;45537;-77
2023/01/10 06:16:23;;;;;;;;;1.00;1.00;;;;;6.13;81.84;100163.94;4993466;28;45476;-77
2023/01/10 06:18:49;;;;;;;;;1.00;1.00;;;;;6.13;82.55;100173.53;4993039;28;45452;-77
2023/01/10 06:21:15;;;;;;;;;1.00;1.00;;;;;6.10;82.47;100166.56;4992922;28;45406;-77
2023/01/10 06:23:40;;;;;;;;;1.00;1.00;;;;;6.07;82.77;100170.94;4993341;28;45473;-78
2023/01/10 06:26:06;;;;;;;;;1.00;1.00;;;;;6.02;82.63;100162.25;4991746;28;45369;-77
2023/01/10 06:28:32;;;;;;;;;2.00;2.00;;;;;5.97;82.59;100172.75;4993019;28;46422;-77
2023/01/10 06:30:57;;;;;;;;;0.75;0.75;;;;;5.96;82.79;100171.00;4993228;28;45355;-78
2023/01/10 06:33:23;;;;;;;;;1.50;1.00;;;;;5.92;82.70;100172.75;4993757;28;45489;-78
2023/01/10 06:35:48;;;;;;;;;2.00;1.00;;;;;5.92;82.52;100177.13;4993068;28;45415;-78
2023/01/10 06:38:14;;;;;;;;;1.00;1.00;;;;;5.86;82.73;100167.53;4993139;28;46176;-78
2023/01/10 06:40:39;;;;;;;;;2.75;1.75;;;;;5.85;82.72;100181.50;4993036;28;45454;-78
2023/01/10 06:43:05;;;;;;;;;2.33;1.67;;;;;5.80;82.77;100187.63;4991254;28;45467;-78
2023/01/10 06:45:30;;;;;;;;;2.00;2.00;;;;;5.77;82.59;100185.88;4992276;28;45366;-78
2023/01/10 06:47:56;;;;;;;;;1.25;1.25;;;;;5.78;82.83;100197.22;4992639;28;45519;-78
2023/01/10 06:50:22;;;;;;;;;1.00;1.00;;;;;5.76;82.69;100193.72;4992678;28;45469;-77
2023/01/10 06:52:57;;;;;;;;;1.25;0.00;;;;;5.79;82.96;100193.72;4996038;28;45514;-78
2023/01/10 06:55:23;;;;;;;;;1.00;1.00;;;;;5.80;83.20;100198.06;4996011;28;45556;-78
2023/01/10 06:57:54;;;;;;;;;3.00;2.00;;;;;5.77;82.84;100195.47;4995317;28;45969;-78
2023/01/10 07:00:20;;;;;;;;;2.00;2.00;;;;;5.78;82.72;100205.06;4996191;28;45500;-78
2023/01/10 07:02:45;;;;;;;;;0.00;0.00;;;;;5.79;82.50;100201.56;4995984;28;45488;-78
2023/01/10 07:05:11;;;;;;;;;2.00;1.00;;;;;5.76;82.78;100202.44;5006020;28;45440;-78
2023/01/10 07:07:36;;;;;;;;;1.25;1.25;;;;;5.75;82.64;100200.69;5012608;28;45483;-78
2023/01/10 07:10:02;;;;;;;;;1.00;1.00;;;;;5.73;82.37;100193.72;4996069;28;45444;-78
2023/01/10 07:12:27;;;;;;;;;1.00;1.00;;;;;5.72;81.81;100192.84;4995364;28;45428;-77
2023/01/10 07:14:53;;;;;;;;;1.25;1.25;;;;;5.67;81.72;100186.78;4994098;28;45353;-78
2023/01/10 07:17:19;;;;;;;;;2.33;2.00;;;;;5.65;82.27;100179.81;4995162;28;46414;-76
2023/01/10 07:19:44;;;;;;;;;1.00;1.00;;;;;5.61;82.37;100177.22;4996019;28;45493;-78
2023/01/10 07:22:10;;;;;;;;;2.00;2.00;;;;;5.62;82.35;100185.94;4996488;28;45394;-78
2023/01/10 07:24:36;;;;;;;;;3.00;2.00;;;;;5.61;82.05;100182.44;4995867;28;45473;-79
2023/01/10 07:27:01;;;;;;;;;4.00;2.67;;;;;5.59;82.63;100189.41;4995392;28;46448;-76
2023/01/10 07:29:27;;;;;;;;;1.25;1.00;;;;;5.59;82.31;100191.16;4995257;28;45355;-77
2023/01/10 07:31:52;;;;;;;;;1.00;1.00;;;;;5.57;81.80;100198.13;4995372;28;45347;-76
2023/01/10 07:34:18;;;;;;;;;0.00;0.00;;;;;5.55;82.37;100197.25;4995118;28;45509;-76
2023/01/10 07:36:43;;;;;;;;;2.00;1.00;;;;;5.49;82.24;100190.31;4994634;28;46532;-78
2023/01/10 07:39:09;;;;;;;;;1.00;1.00;;;;;5.49;82.53;100181.63;4995377;28;45442;-78
2023/01/10 07:41:34;;;;;;;;;1.00;1.00;;;;;5.46;82.58;100181.63;4993808;28;45942;-78
2023/01/10 07:44:00;;;;;;;;;1.00;0.00;;;;;5.47;82.41;100185.97;4993264;28;45531;-78
2023/01/10 07:46:25;;;;;;;;;0.00;0.00;;;;;5.41;81.61;100194.69;4993761;28;47543;-78
2023/01/10 07:48:51;;;;;;;;;2.33;1.67;;;;;5.34;81.74;100187.75;4994681;28;45511;-78
2023/01/10 07:51:16;;;;;;;;;1.00;1.00;;;;;5.32;82.10;100193.84;4993470;28;45560;-78
2023/01/10 07:53:42;;;;;;;;;5.50;1.00;;;;;5.28;81.31;100192.09;4994576;28;45392;-79
2023/01/10 07:56:07;;;;;;;;;2.67;1.67;;;;;5.25;81.71;100196.47;4993173;28;47469;-78
2023/01/10 07:58:33;;;;;;;;;4.00;3.00;;;;;5.23;82.14;100198.22;4994314;28;45554;-78
2023/01/10 08:00:59;;;;;;;;;1.33;1.33;;;;;5.29;82.95;100205.19;4995133;28;45549;-78
2023/01/10 08:03:26;;;;;;;;;2.33;1.00;;;;;5.32;82.36;100212.16;4994891;28;45552;-78
2023/01/10 08:06:06;;;;;;;;;4.00;4.00;;;;;5.35;82.49;100210.41;4996126;28;45471;-78
2023/01/10 08:08:33;;;;;;;;;4.00;3.00;;;;;5.38;82.98;100218.22;4995846;28;45461;-79
2023/01/10 08:11:01;;;;;;;;;3.00;3.00;;;;;5.38;82.44;100223.44;4998081;28;45455;-78
2023/01/10 08:13:27;;;;;;;;;6.33;3.00;;;;;5.36;82.92;100221.75;4995268;28;45407;-78
2023/01/10 08:15:52;;;;;;;;;5.33;4.00;;;;;5.34;82.89;100224.34;4994461;28;46514;-77
2023/01/10 08:18:19;;;;;;;;;4.67;3.00;;;;;5.38;83.17;100226.06;4993083;28;45339;-77
2023/01/10 08:20:48;;;;;;;;;2.33;2.33;;;;;5.39;83.40;100226.94;4993395;28;45532;-76
2023/01/10 08:23:13;;;;;;;;;7.67;6.33;;;;;5.41;83.73;100226.06;4993442;28;45338;-77
2023/01/10 08:25:39;;;;;;;;;6.00;6.00;;;;;5.44;83.73;100219.97;4992690;28;47112;-77
2023/01/10 08:28:05;;;;;;;;;6.00;5.33;;;;;5.50;83.80;100217.34;4992674;28;45465;-79
2023/01/10 08:30:30;;;;;;;;;8.00;6.33;;;;;5.52;83.46;100219.09;4994792;28;45374;-76
2023/01/10 08:32:56;;;;;;;;;19.33;17.00;;;;;5.57;83.41;100224.28;4994917;28;45465;-76
2023/01/10 08:35:22;;;;;;;;;6.00;6.00;;;;;5.59;83.59;100218.19;4994641;28;45391;-76
2023/01/10 08:37:47;;;;;;;;;4.00;3.33;;;;;5.62;83.67;100225.16;4994834;28;45362;-76
2023/01/10 08:40:13;;;;;;;;;5.33;5.33;;;;;5.68;83.39;100233.00;5009767;28;45597;-77
2023/01/10 08:42:38;;;;;;;;;5.33;3.00;;;;;5.72;83.24;100231.22;4995863;28;45414;-77
2023/01/10 08:45:04;;;;;;;;;5.00;3.00;;;;;5.74;83.31;100225.13;5013170;28;45427;-77
2023/01/10 08:47:30;;;;;;;;;5.33;5.33;;;;;5.80;83.26;100232.09;5010154;28;45450;-77
2023/01/10 08:49:55;;;;;;;;;4.67;3.67;;;;;5.84;83.04;100233.84;5013888;28;45701;-78
2023/01/10 08:52:21;;;;;;;;;5.33;3.67;;;;;5.86;82.54;100230.34;5005779;28;45566;-79
2023/01/10 08:54:46;;;;;;;;;3.00;3.00;;;;;5.93;82.37;100229.47;4993965;28;45517;-76
2023/01/10 08:57:12;;;;;;;;;4.00;3.00;;;;;5.97;82.27;100234.69;4993953;28;45703;-78
2023/01/10 08:59:38;;;;;;;;;16.00;9.00;;;;;6.04;82.21;100244.25;4994042;28;45491;-78
2023/01/10 09:02:03;;;;;;;;;3.67;3.67;;;;;6.06;81.94;100229.41;4993578;28;45398;-78
2023/01/10 09:04:30;;;;;;;;;4.00;4.00;;;;;6.12;81.87;100250.34;4998023;28;46488;-78
2023/01/10 09:06:56;;;;;;;;;7.00;4.00;;;;;6.14;82.04;100241.59;5001878;28;45480;-78
2023/01/10 09:09:21;;;;;;;;;4.00;4.00;;;;;6.15;82.02;100247.72;4994539;28;45378;-78
2023/01/10 09:11:47;;;;;;;;;7.00;5.67;;;;;6.18;82.06;100263.41;4994324;28;45445;-76
2023/01/10 09:14:14;;;;;;;;;9.33;8.00;;;;;6.22;82.34;100263.38;4993014;28;45989;-78
2023/01/10 09:16:39;;;;;;;;;10.33;10.33;;;;;6.23;82.66;100264.22;4993546;28;45387;-76
2023/01/10 09:19:05;;;;;;;;;13.33;10.00;;;;;6.27;82.27;100264.22;4992296;28;45442;-76
2023/01/10 09:21:30;;;;;;;;;10.00;10.00;;;;;6.33;82.43;100273.81;4994002;28;45385;-76
2023/01/10 09:23:56;;;;;;;;;7.00;7.00;;;;;6.34;82.45;100275.56;4993672;28;46217;-76
2023/01/10 09:26:21;;;;;;;;;10.00;9.00;;;;;6.36;82.54;100278.16;4993915;28;45504;-77
2023/01/10 09:28:48;;;;;;;;;8.67;7.67;;;;;6.38;82.54;100279.88;5008865;28;45484;-78
2023/01/10 09:31:14;;;;;;;;;7.33;7.33;;;;;6.40;82.12;100275.50;4993949;28;45495;-78
2023/01/10 09:33:41;;;;;;;;;7.33;6.00;;;;;6.40;82.16;100272.88;4995970;28;46292;-78
2023/01/10 09:36:07;;;;;;;;;6.67;6.67;;;;;6.44;82.04;100276.38;4997404;28;45366;-78
2023/01/10 09:38:33;;;;;;;;;9.33;7.00;;;;;6.48;81.84;100284.22;4996721;28;45370;-77
2023/01/10 09:41:17;;;;;;;;;5.00;4.33;;;;;6.49;81.54;100295.56;4995736;28;45306;-77
2023/01/10 09:43:52;;;;;;;;;8.00;8.00;;;;;6.54;81.58;100299.00;4993344;28;45474;-78
2023/01/10 09:46:20;;;;;;;;;7.33;4.67;;;;;6.58;81.43;100290.25;4993814;28;45509;-77
2023/01/10 09:48:59;;;;;;;;;8.33;6.67;;;;;6.63;81.33;100280.63;4992241;28;45413;-77
2023/01/10 09:51:37;;;;;;;;;7.00;5.33;;;;;6.68;80.61;100270.13;4993700;28;45508;-77
2023/01/10 09:54:35;;;;;;;;;9.67;8.67;;;;;6.75;80.78;100277.06;4993473;28;46230;-77
2023/01/10 09:57:01;;;;;;;;;5.00;4.00;;;;;6.79;80.47;100279.66;4992965;28;45509;-77
2023/01/10 09:59:36;;;;;;;;;3.75;3.75;;;;;6.86;80.62;100272.66;4993639;28;45527;-77
2023/01/10 10:02:44;;;;;;;;;7.00;5.33;;;;;6.91;80.11;100270.84;4993416;28;45346;-77
2023/01/10 10:05:28;;;;;;;;;4.00;4.00;;;;;6.94;79.75;100263.84;4982297;28;47922;-77
2023/01/10 10:08:03;;;;;;;;;4.00;4.00;;;;;7.00;79.66;100263.81;4991979;28;45755;-78
2023/01/10 10:10:38;;;;;;;;;2.00;1.00;;;;;7.08;79.62;100265.47;4991802;28;45474;-77
2023/01/10 10:13:43;;;;;;;;;5.50;5.50;;;;;7.14;79.97;100263.69;4993119;28;45496;-77
2023/01/10 10:16:34;;;;;;;;;6.75;4.25;;;;;7.21;79.97;100261.88;4979201;28;45467;-77
2023/01/10 10:19:14;;;;;;;;;4.75;4.75;;;;;7.30;79.63;100264.44;4992546;28;45438;-77
2023/01/10 10:22:00;;;;;;;;;7.00;6.25;;;;;7.34;79.26;100264.41;4993224;28;45553;-78
2023/01/10 10:24:42;;;;;;;;;11.00;8.33;;;;;7.40;79.83;100257.34;4981030;28;45343;-77
2023/01/10 10:27:30;;;;;;;;;8.75;6.50;;;;;7.46;79.64;100263.41;4995267;28;46166;-78
2023/01/10 10:29:58;;;;;;;;;9.00;8.00;;;;;7.51;79.33;100258.13;4996520;28;45433;-78
2023/01/10 10:32:39;;;;;;;;;10.00;8.25;;;;;7.53;79.07;100259.84;4989040;28;45500;-78
2023/01/10 10:35:16;;;;;;;;;8.67;8.33;;;;;7.55;79.11;100246.69;4995759;28;45504;-78
2023/01/10 10:37:49;;;;;;;;;11.00;9.00;;;;;7.57;79.30;100243.19;4996468;28;45441;-77
2023/01/10 10:40:16;;;;;;;;;7.00;7.00;;;;;7.63;78.49;100242.25;4996062;28;45499;-77
2023/01/10 10:42:49;;;;;;;;;6.50;4.50;;;;;7.63;77.74;100234.38;4996637;28;45464;-78
2023/01/10 10:45:25;;;;;;;;;9.75;9.00;;;;;7.68;78.11;100243.09;4994936;28;45418;-78
2023/01/10 10:48:25;;;;;;;;;7.33;6.33;;;;;7.67;77.96;100239.59;4996474;28;45458;-76
2023/01/10 10:51:16;;;;;;;;;6.75;6.25;;;;;7.76;77.68;100227.25;4996233;28;45513;-78
2023/01/10 10:53:41;;;;;;;;;6.33;5.33;;;;;7.72;77.38;100214.16;4996118;28;45413;-78
2023/01/10 10:56:14;;;;;;;;;9.00;8.67;;;;;7.77;77.72;100214.09;4995624;28;45344;-78
2023/01/10 10:58:43;;;;;;;;;9.33;9.33;;;;;7.78;77.63;100215.84;4995441;28;45657;-77
2023/01/10 11:01:13;;;;;;;;;9.00;9.00;;;;;7.83;77.46;100211.41;4995818;28;45413;-78
2023/01/10 11:03:46;;;;;;;;;11.00;10.00;;;;;7.84;77.70;100202.66;4996490;28;45442;-78
2023/01/10 11:06:14;;;;;;;;;13.00;10.00;;;;;7.88;77.12;100209.59;5008786;28;45417;-77
2023/01/10 11:08:43;;;;;;;;;9.00;9.00;;;;;7.90;77.65;100205.19;4995684;28;46333;-78
2023/01/10 11:11:32;;;;;;;;;10.75;8.00;;;;;7.93;77.35;100194.66;5010980;28;45970;-78
2023/01/10 11:14:05;;;;;;;;;10.00;10.00;;;;;7.93;77.55;100188.53;4995734;28;45465;-77
2023/01/10 11:16:43;;;;;;;;;15.33;11.67;;;;;7.92;77.38;100178.91;4995703;28;45422;-77
2023/01/10 11:19:23;;;;;;;;;9.50;9.00;;;;;7.96;76.96;100176.25;4977150;28;47451;-77
2023/01/10 11:21:54;;;;;;;;;11.33;10.33;;;;;8.02;76.71;100181.44;4995537;28;45386;-77
2023/01/10 11:24:27;;;;;;;;;10.67;10.33;;;;;8.06;76.78;100174.34;4994984;28;45716;-77
2023/01/10 11:26:56;;;;;;;;;11.00;9.00;;;;;8.10;76.88;100162.94;4995121;28;45536;-77
2023/01/10 11:29:47;;;;;;;;;13.00;9.50;;;;;8.16;76.73;100157.59;4995113;28;45417;-77
2023/01/10 11:32:16;;;;;;;;;12.33;10.33;;;;;8.20;76.71;100145.31;4993695;28;45502;-77
2023/01/10 11:34:54;;;;;;;;;13.67;9.33;;;;;8.26;76.62;100153.94;4981986;28;45385;-78
2023/01/10 11:37:27;;;;;;;;;10.33;8.00;;;;;8.31;75.72;100146.88;4983838;28;45318;-77
2023/01/10 11:40:14;;;;;;;;;13.25;8.00;;;;;8.38;75.91;100145.91;4995816;28;45482;-78
2023/01/10 11:42:41;;;;;;;;;9.75;9.25;;;;;8.42;75.61;100138.00;4993925;28;45356;-78
2023/01/10 11:45:18;;;;;;;;;7.00;7.00;;;;;8.49;75.30;100132.63;4995522;28;45413;-78
2023/01/10 11:47:54;;;;;;;;;8.00;5.00;;;;;8.54;74.53;100130.81;4994055;28;45638;-79
2023/01/10 11:50:25;;;;;;;;;6.25;6.25;;;;;8.58;73.94;100129.84;4994929;28;45552;-78
2023/01/10 11:52:51;;;;;;;;;5.50;3.75;;;;;8.64;74.04;100116.63;4991792;28;45394;-78